sensor_id;sensor_type;location;lat;lon;timestamp;pressure;altitude;pressure_sealevel;temperature;humidity
62655;BME280;48717;55.556;37.816;2023-11-19T00:00:18;100315.69;;;-9.41;89.38
62655;BME280;48717;55.556;37.816;2023-11-19T00:02:46;100325.66;;;-9.34;89.27
62655;BME280;48717;55.556;37.816;2023-11-19T00:05:14;100323.59;;;-9.38;89.11
62655;BME280;48717;55.556;37.816;2023-11-19T00:07:42;100313.75;;;-9.44;89.64
62655;BME280;48717;55.556;37.816;2023-11-19T00:10:09;100307.97;;;-9.52;89.22
62655;BME280;48717;55.556;37.816;2023-11-19T00:12:42;100326.38;;;-9.46;89.51
62655;BME280;48717;55.556;37.816;2023-11-19T00:15:10;100321.22;;;-9.56;89.65
62655;BME280;48717;55.556;37.816;2023-11-19T00:17:44;100314.81;;;-9.61;89.56
62655;BME280;48717;55.556;37.816;2023-11-19T00:20:16;100312.06;;;-9.54;90.17
62655;BME280;48717;55.556;37.816;2023-11-19T00:22:43;100319.94;;;-9.61;90.32
62655;BME280;48717;55.556;37.816;2023-11-19T00:25:14;100319.44;;;-9.57;90.75
62655;BME280;48717;55.556;37.816;2023-11-19T00:27:41;100319.44;;;-9.57;90.58
62655;BME280;48717;55.556;37.816;2023-11-19T00:30:12;100322.53;;;-9.51;90.81
62655;BME280;48717;55.556;37.816;2023-11-19T00:32:41;100308.44;;;-9.56;91.64
62655;BME280;48717;55.556;37.816;2023-11-19T00:35:08;100311.00;;;-9.56;90.98
62655;BME280;48717;55.556;37.816;2023-11-19T00:37:42;100300.75;;;-9.66;90.97
62655;BME280;48717;55.556;37.816;2023-11-19T00:40:10;100305.59;;;-9.70;90.41
62655;BME280;48717;55.556;37.816;2023-11-19T00:42:38;100288.19;;;-9.84;90.56
62655;BME280;48717;55.556;37.816;2023-11-19T00:45:05;100301.41;;;-9.69;91.05
62655;BME280;48717;55.556;37.816;2023-11-19T00:47:38;100301.75;;;-9.75;91.70
62655;BME280;48717;55.556;37.816;2023-11-19T00:50:06;100301.25;;;-9.71;91.57
62655;BME280;48717;55.556;37.816;2023-11-19T00:52:37;100296.56;;;-9.66;91.75
62655;BME280;48717;55.556;37.816;2023-11-19T00:55:06;100294.16;;;-9.64;92.23
62655;BME280;48717;55.556;37.816;2023-11-19T00:57:34;100284.66;;;-9.76;91.47
62655;BME280;48717;55.556;37.816;2023-11-19T01:00:03;100305.00;;;-9.67;91.74
62655;BME280;48717;55.556;37.816;2023-11-19T01:02:36;100283.06;;;-9.84;91.07
62655;BME280;48717;55.556;37.816;2023-11-19T01:05:03;100297.91;;;-9.80;90.89
62655;BME280;48717;55.556;37.816;2023-11-19T01:07:31;100287.50;;;-9.92;90.25
62655;BME280;48717;55.556;37.816;2023-11-19T01:09:58;100298.88;;;-9.88;90.56
62655;BME280;48717;55.556;37.816;2023-11-19T01:12:25;100292.75;;;-9.90;90.67
62655;BME280;48717;55.556;37.816;2023-11-19T01:14:52;100259.13;;;-10.05;91.44
62655;BME280;48717;55.556;37.816;2023-11-19T01:17:19;100278.47;;;-9.88;91.69
62655;BME280;48717;55.556;37.816;2023-11-19T01:19:46;100262.63;;;-9.94;91.99
62655;BME280;48717;55.556;37.816;2023-11-19T01:22:13;100269.53;;;-9.83;92.70
62655;BME280;48717;55.556;37.816;2023-11-19T01:24:40;100257.06;;;-9.80;92.89
62655;BME280;48717;55.556;37.816;2023-11-19T01:27:07;100253.75;;;-9.79;93.14
62655;BME280;48717;55.556;37.816;2023-11-19T01:29:35;100265.28;;;-9.74;92.94
62655;BME280;48717;55.556;37.816;2023-11-19T01:32:02;100257.09;;;-9.70;93.22
62655;BME280;48717;55.556;37.816;2023-11-19T01:34:29;100255.16;;;-9.72;93.34
62655;BME280;48717;55.556;37.816;2023-11-19T01:36:56;100251.50;;;-9.65;93.28
62655;BME280;48717;55.556;37.816;2023-11-19T01:39:23;100256.34;;;-9.68;93.67
62655;BME280;48717;55.556;37.816;2023-11-19T01:41:50;100258.00;;;-9.69;92.77
62655;BME280;48717;55.556;37.816;2023-11-19T01:44:18;100223.31;;;-9.97;92.42
62655;BME280;48717;55.556;37.816;2023-11-19T01:46:46;100260.38;;;-9.81;93.00
62655;BME280;48717;55.556;37.816;2023-11-19T01:49:17;100238.63;;;-9.97;92.62
62655;BME280;48717;55.556;37.816;2023-11-19T01:51:47;100243.22;;;-9.92;93.10
62655;BME280;48717;55.556;37.816;2023-11-19T01:54:15;100245.34;;;-9.78;93.15
62655;BME280;48717;55.556;37.816;2023-11-19T01:56:42;100261.19;;;-9.72;93.28
62655;BME280;48717;55.556;37.816;2023-11-19T01:59:11;100234.59;;;-9.84;93.11
62655;BME280;48717;55.556;37.816;2023-11-19T02:01:41;100214.81;;;-9.87;93.08
62655;BME280;48717;55.556;37.816;2023-11-19T02:04:09;100260.19;;;-9.63;93.27
62655;BME280;48717;55.556;37.816;2023-11-19T02:06:41;100258.03;;;-9.59;93.40
62655;BME280;48717;55.556;37.816;2023-11-19T02:09:09;100221.25;;;-9.71;92.81
62655;BME280;48717;55.556;37.816;2023-11-19T02:11:39;100261.47;;;-9.58;93.16
62655;BME280;48717;55.556;37.816;2023-11-19T02:14:08;100222.59;;;-9.85;92.39
62655;BME280;48717;55.556;37.816;2023-11-19T02:16:35;100261.19;;;-9.72;92.50
62655;BME280;48717;55.556;37.816;2023-11-19T02:19:02;100239.06;;;-9.81;92.70
62655;BME280;48717;55.556;37.816;2023-11-19T02:21:50;100238.69;;;-9.76;92.66
62655;BME280;48717;55.556;37.816;2023-11-19T02:24:20;100252.75;;;-9.71;93.07
62655;BME280;48717;55.556;37.816;2023-11-19T02:27:07;100223.84;;;-9.90;92.25
62655;BME280;48717;55.556;37.816;2023-11-19T02:29:36;100216.53;;;-10.06;92.31
62655;BME280;48717;55.556;37.816;2023-11-19T02:32:05;100249.09;;;-9.93;92.47
62655;BME280;48717;55.556;37.816;2023-11-19T02:34:32;100240.94;;;-9.89;92.76
62655;BME280;48717;55.556;37.816;2023-11-19T02:36:59;100232.53;;;-9.88;93.15
62655;BME280;48717;55.556;37.816;2023-11-19T02:39:26;100234.31;;;-9.87;92.97
62655;BME280;48717;55.556;37.816;2023-11-19T02:41:53;100238.69;;;-9.86;93.28
62655;BME280;48717;55.556;37.816;2023-11-19T02:44:20;100230.47;;;-9.92;93.11
62655;BME280;48717;55.556;37.816;2023-11-19T02:46:47;100223.94;;;-9.99;93.18
62655;BME280;48717;55.556;37.816;2023-11-19T02:49:15;100250.88;;;-9.92;92.55
62655;BME280;48717;55.556;37.816;2023-11-19T02:51:42;100257.38;;;-9.96;92.60
62655;BME280;48717;55.556;37.816;2023-11-19T02:54:10;100237.56;;;-10.09;92.50
62655;BME280;48717;55.556;37.816;2023-11-19T02:56:37;100214.63;;;-10.28;92.08
62655;BME280;48717;55.556;37.816;2023-11-19T02:59:05;100233.69;;;-10.14;92.59
62655;BME280;48717;55.556;37.816;2023-11-19T03:01:42;100238.78;;;-10.14;92.43
62655;BME280;48717;55.556;37.816;2023-11-19T03:04:11;100206.06;;;-10.29;92.86
62655;BME280;48717;55.556;37.816;2023-11-19T03:06:39;100248.78;;;-10.07;92.99
62655;BME280;48717;55.556;37.816;2023-11-19T03:09:06;100249.63;;;-10.17;92.78
62655;BME280;48717;55.556;37.816;2023-11-19T03:11:37;100251.50;;;-10.25;92.51
62655;BME280;48717;55.556;37.816;2023-11-19T03:14:05;100218.09;;;-10.47;92.27
62655;BME280;48717;55.556;37.816;2023-11-19T03:16:32;100250.41;;;-10.37;92.92
62655;BME280;48717;55.556;37.816;2023-11-19T03:18:59;100238.78;;;-10.44;93.05
62655;BME280;48717;55.556;37.816;2023-11-19T03:21:30;100246.53;;;-10.42;93.08
62655;BME280;48717;55.556;37.816;2023-11-19T03:23:58;100249.75;;;-10.45;93.30
62655;BME280;48717;55.556;37.816;2023-11-19T03:26:28;100243.00;;;-10.44;93.22
62655;BME280;48717;55.556;37.816;2023-11-19T03:28:56;100218.19;;;-10.56;93.69
62655;BME280;48717;55.556;37.816;2023-11-19T03:31:24;100223.22;;;-10.47;94.54
62655;BME280;48717;55.556;37.816;2023-11-19T03:33:52;100225.38;;;-10.41;94.84
62655;BME280;48717;55.556;37.816;2023-11-19T03:36:21;100226.09;;;-10.33;94.66
62655;BME280;48717;55.556;37.816;2023-11-19T03:38:49;100203.97;;;-10.43;94.82
62655;BME280;48717;55.556;37.816;2023-11-19T03:41:16;100224.56;;;-10.31;95.31
62655;BME280;48717;55.556;37.816;2023-11-19T03:43:44;100198.53;;;-10.38;94.61
62655;BME280;48717;55.556;37.816;2023-11-19T03:48:49;100207.38;;;-10.24;94.86
62655;BME280;48717;55.556;37.816;2023-11-19T03:51:17;100188.44;;;-10.36;94.98
62655;BME280;48717;55.556;37.816;2023-11-19T03:53:45;100179.00;;;-10.37;94.38
62655;BME280;48717;55.556;37.816;2023-11-19T03:56:12;100207.50;;;-10.22;94.62
62655;BME280;48717;55.556;37.816;2023-11-19T03:58:39;100215.16;;;-10.22;93.84
62655;BME280;48717;55.556;37.816;2023-11-19T04:01:13;100167.78;;;-10.39;93.70
62655;BME280;48717;55.556;37.816;2023-11-19T04:03:41;100190.28;;;-10.25;94.42
62655;BME280;48717;55.556;37.816;2023-11-19T04:06:11;100204.63;;;-10.16;94.66
62655;BME280;48717;55.556;37.816;2023-11-19T04:08:38;100187.53;;;-10.17;95.17
62655;BME280;48717;55.556;37.816;2023-11-19T04:11:05;100186.72;;;-10.27;94.74
62655;BME280;48717;55.556;37.816;2023-11-19T04:13:32;100202.06;;;-10.16;95.23
62655;BME280;48717;55.556;37.816;2023-11-19T04:16:00;100182.63;;;-10.25;94.66
62655;BME280;48717;55.556;37.816;2023-11-19T04:18:27;100187.53;;;-10.17;94.54
62655;BME280;48717;55.556;37.816;2023-11-19T04:20:54;100184.97;;;-10.17;94.50
62655;BME280;48717;55.556;37.816;2023-11-19T04:23:21;100176.28;;;-10.19;94.75
62655;BME280;48717;55.556;37.816;2023-11-19T04:25:48;100169.88;;;-10.25;94.65
62655;BME280;48717;55.556;37.816;2023-11-19T04:28:15;100176.72;;;-10.34;93.84
62655;BME280;48717;55.556;37.816;2023-11-19T04:30:42;100183.84;;;-10.40;93.02
62655;BME280;48717;55.556;37.816;2023-11-19T04:33:10;100166.31;;;-10.56;92.13
62655;BME280;48717;55.556;37.816;2023-11-19T04:35:37;100190.19;;;-10.45;91.81
62655;BME280;48717;55.556;37.816;2023-11-19T04:38:04;100181.88;;;-10.53;92.15
62655;BME280;48717;55.556;37.816;2023-11-19T04:40:31;100196.84;;;-10.47;92.60
62655;BME280;48717;55.556;37.816;2023-11-19T04:42:58;100196.84;;;-10.47;93.36
62655;BME280;48717;55.556;37.816;2023-11-19T04:45:25;100183.03;;;-10.50;93.93
62655;BME280;48717;55.556;37.816;2023-11-19T04:47:52;100185.09;;;-10.45;93.61
62655;BME280;48717;55.556;37.816;2023-11-19T04:50:19;100142.69;;;-10.64;94.09
62655;BME280;48717;55.556;37.816;2023-11-19T04:52:46;100181.81;;;-10.44;94.02
62655;BME280;48717;55.556;37.816;2023-11-19T04:55:13;100180.25;;;-10.42;93.49
62655;BME280;48717;55.556;37.816;2023-11-19T04:57:41;100179.47;;;-10.52;92.81
62655;BME280;48717;55.556;37.816;2023-11-19T05:00:10;100195.16;;;-10.47;92.42
62655;BME280;48717;55.556;37.816;2023-11-19T05:02:41;100206.00;;;-10.50;92.04
62655;BME280;48717;55.556;37.816;2023-11-19T05:05:08;100210.34;;;-10.49;92.42
62655;BME280;48717;55.556;37.816;2023-11-19T05:07:36;100217.72;;;-10.41;92.61
62655;BME280;48717;55.556;37.816;2023-11-19T05:10:04;100194.59;;;-10.34;92.94
62655;BME280;48717;55.556;37.816;2023-11-19T05:12:32;100192.31;;;-10.31;92.96
62655;BME280;48717;55.556;37.816;2023-11-19T05:15:00;100200.75;;;-10.22;93.24
62655;BME280;48717;55.556;37.816;2023-11-19T05:17:30;100210.88;;;-10.13;92.99
62655;BME280;48717;55.556;37.816;2023-11-19T05:19:57;100215.91;;;-10.04;93.09
62655;BME280;48717;55.556;37.816;2023-11-19T05:22:24;100214.91;;;-9.96;92.46
62655;BME280;48717;55.556;37.816;2023-11-19T05:24:52;100217.22;;;-9.88;92.23
62655;BME280;48717;55.556;37.816;2023-11-19T05:27:19;100199.22;;;-9.90;90.84
62655;BME280;48717;55.556;37.816;2023-11-19T05:29:46;100193.47;;;-9.87;91.26
62655;BME280;48717;55.556;37.816;2023-11-19T05:32:13;100215.75;;;-9.65;91.07
62655;BME280;48717;55.556;37.816;2023-11-19T05:34:41;100215.53;;;-9.58;90.84
62655;BME280;48717;55.556;37.816;2023-11-19T05:37:11;100208.66;;;-9.49;90.61
62655;BME280;48717;55.556;37.816;2023-11-19T05:39:38;100223.75;;;-9.41;90.14
62655;BME280;48717;55.556;37.816;2023-11-19T05:42:06;100227.06;;;-9.32;90.42
62655;BME280;48717;55.556;37.816;2023-11-19T05:44:33;100220.97;;;-9.24;90.44
62655;BME280;48717;55.556;37.816;2023-11-19T05:47:01;100213.16;;;-9.15;90.89
62655;BME280;48717;55.556;37.816;2023-11-19T05:49:29;100204.47;;;-9.07;89.84
62655;BME280;48717;55.556;37.816;2023-11-19T05:51:56;100215.34;;;-9.09;89.92
62655;BME280;48717;55.556;37.816;2023-11-19T05:54:24;100201.44;;;-9.13;88.65
62655;BME280;48717;55.556;37.816;2023-11-19T05:56:53;100185.31;;;-9.12;88.55
62655;BME280;48717;55.556;37.816;2023-11-19T05:59:21;100192.09;;;-9.12;87.70
62655;BME280;48717;55.556;37.816;2023-11-19T06:01:49;100182.91;;;-9.10;87.67
62655;BME280;48717;55.556;37.816;2023-11-19T06:04:17;100191.81;;;-8.95;88.34
62655;BME280;48717;55.556;37.816;2023-11-19T06:06:44;100204.88;;;-8.92;87.03
62655;BME280;48717;55.556;37.816;2023-11-19T06:09:11;100194.66;;;-8.92;87.96
62655;BME280;48717;55.556;37.816;2023-11-19T06:11:40;100197.97;;;-8.93;87.87
62655;BME280;48717;55.556;37.816;2023-11-19T06:14:07;100201.03;;;-8.97;87.03
62655;BME280;48717;55.556;37.816;2023-11-19T06:16:34;100175.59;;;-9.06;87.16
62655;BME280;48717;55.556;37.816;2023-11-19T06:19:04;100196.69;;;-8.87;87.12
62655;BME280;48717;55.556;37.816;2023-11-19T06:21:31;100194.91;;;-8.88;86.18
62655;BME280;48717;55.556;37.816;2023-11-19T06:23:58;100186.72;;;-8.84;86.59
62655;BME280;48717;55.556;37.816;2023-11-19T06:26:26;100204.34;;;-8.77;86.62
62655;BME280;48717;55.556;37.816;2023-11-19T06:28:54;100178.91;;;-8.75;86.31
62655;BME280;48717;55.556;37.816;2023-11-19T06:31:21;100016.63;;;-9.65;86.46
62655;BME280;48717;55.556;37.816;2023-11-19T06:33:49;100185.94;;;-8.62;85.37
62655;BME280;48717;55.556;37.816;2023-11-19T06:36:16;100194.53;;;-8.50;86.44
62655;BME280;48717;55.556;37.816;2023-11-19T06:38:43;100196.44;;;-8.47;86.51
62655;BME280;48717;55.556;37.816;2023-11-19T06:41:10;100195.31;;;-8.41;85.53
62655;BME280;48717;55.556;37.816;2023-11-19T06:43:38;100141.69;;;-8.61;86.13
62655;BME280;48717;55.556;37.816;2023-11-19T06:46:16;100177.75;;;-8.36;85.32
62655;BME280;48717;55.556;37.816;2023-11-19T06:48:44;100194.25;;;-8.32;84.89
62655;BME280;48717;55.556;37.816;2023-11-19T06:51:12;100188.66;;;-8.39;84.75
62655;BME280;48717;55.556;37.816;2023-11-19T06:53:40;100176.13;;;-8.46;85.69
62655;BME280;48717;55.556;37.816;2023-11-19T06:56:23;100178.28;;;-8.40;84.57
62655;BME280;48717;55.556;37.816;2023-11-19T06:58:51;100185.56;;;-8.34;83.84
62655;BME280;48717;55.556;37.816;2023-11-19T07:01:19;100187.59;;;-8.30;83.97
62655;BME280;48717;55.556;37.816;2023-11-19T07:03:47;100188.06;;;-8.24;83.16
62655;BME280;48717;55.556;37.816;2023-11-19T07:06:15;100174.81;;;-8.30;83.93
62655;BME280;48717;55.556;37.816;2023-11-19T07:08:43;100195.97;;;-8.10;83.43
62655;BME280;48717;55.556;37.816;2023-11-19T07:11:14;100193.53;;;-8.09;84.28
62655;BME280;48717;55.556;37.816;2023-11-19T07:13:43;100187.03;;;-8.16;84.46
62655;BME280;48717;55.556;37.816;2023-11-19T07:16:14;100161.84;;;-8.21;84.14
62655;BME280;48717;55.556;37.816;2023-11-19T07:18:42;100198.50;;;-8.00;83.57
62655;BME280;48717;55.556;37.816;2023-11-19T07:21:11;100192.72;;;-7.97;83.59
62655;BME280;48717;55.556;37.816;2023-11-19T07:23:38;100204.81;;;-7.84;83.02
62655;BME280;48717;55.556;37.816;2023-11-19T07:26:06;100158.34;;;-8.12;81.01
62655;BME280;48717;55.556;37.816;2023-11-19T07:28:36;100201.06;;;-7.78;79.87
62655;BME280;48717;55.556;37.816;2023-11-19T07:31:03;100189.19;;;-7.77;80.53
62655;BME280;48717;55.556;37.816;2023-11-19T07:33:31;100191.22;;;-7.83;80.08
62655;BME280;48717;55.556;37.816;2023-11-19T07:35:58;100187.75;;;-7.74;80.65
62655;BME280;48717;55.556;37.816;2023-11-19T07:38:25;100192.91;;;-7.62;80.52
62655;BME280;48717;55.556;37.816;2023-11-19T07:40:52;100161.72;;;-7.68;79.36
62655;BME280;48717;55.556;37.816;2023-11-19T07:43:22;100184.66;;;-7.47;76.93
62655;BME280;48717;55.556;37.816;2023-11-19T07:45:49;100184.13;;;-7.43;76.84
62655;BME280;48717;55.556;37.816;2023-11-19T07:48:16;100189.94;;;-7.34;76.42
62655;BME280;48717;55.556;37.816;2023-11-19T07:50:45;100160.97;;;-7.32;77.33
62655;BME280;48717;55.556;37.816;2023-11-19T07:53:12;100175.16;;;-7.26;75.70
62655;BME280;48717;55.556;37.816;2023-11-19T07:55:40;100196.44;;;-7.27;76.59
62655;BME280;48717;55.556;37.816;2023-11-19T07:58:09;100161.06;;;-7.43;76.78
62655;BME280;48717;55.556;37.816;2023-11-19T08:00:37;100162.06;;;-7.41;77.59
62655;BME280;48717;55.556;37.816;2023-11-19T08:03:04;100186.88;;;-7.17;77.49
62655;BME280;48717;55.556;37.816;2023-11-19T08:05:32;100182.41;;;-7.20;76.65
62655;BME280;48717;55.556;37.816;2023-11-19T08:07:59;100178.13;;;-7.31;75.84
62655;BME280;48717;55.556;37.816;2023-11-19T08:10:26;100188.91;;;-7.36;76.67
62655;BME280;48717;55.556;37.816;2023-11-19T08:12:54;100160.44;;;-7.51;76.85
62655;BME280;48717;55.556;37.816;2023-11-19T08:15:21;100147.53;;;-7.52;77.80
62655;BME280;48717;55.556;37.816;2023-11-19T08:17:51;100171.69;;;-7.26;77.09
62655;BME280;48717;55.556;37.816;2023-11-19T08:20:18;100127.19;;;-7.39;75.77
62655;BME280;48717;55.556;37.816;2023-11-19T08:22:47;100163.47;;;-7.10;76.03
62655;BME280;48717;55.556;37.816;2023-11-19T08:25:14;100162.66;;;-7.21;73.12
62655;BME280;48717;55.556;37.816;2023-11-19T08:27:41;100169.34;;;-7.23;73.50
62655;BME280;48717;55.556;37.816;2023-11-19T08:30:10;100135.09;;;-7.36;75.66
62655;BME280;48717;55.556;37.816;2023-11-19T08:32:38;100135.34;;;-7.32;75.05
62655;BME280;48717;55.556;37.816;2023-11-19T08:35:06;100175.97;;;-7.15;73.13
62655;BME280;48717;55.556;37.816;2023-11-19T08:37:34;100131.34;;;-7.29;74.69
62655;BME280;48717;55.556;37.816;2023-11-19T08:40:04;100151.41;;;-7.23;74.69
62655;BME280;48717;55.556;37.816;2023-11-19T08:42:31;100153.44;;;-7.19;74.12
62655;BME280;48717;55.556;37.816;2023-11-19T08:44:58;100153.13;;;-7.12;74.41
62655;BME280;48717;55.556;37.816;2023-11-19T08:47:26;100157.22;;;-7.14;73.23
62655;BME280;48717;55.556;37.816;2023-11-19T08:49:53;100151.41;;;-7.23;72.80
62655;BME280;48717;55.556;37.816;2023-11-19T08:52:24;100155.22;;;-7.18;73.35
62655;BME280;48717;55.556;37.816;2023-11-19T08:54:51;100143.19;;;-7.19;72.40
62655;BME280;48717;55.556;37.816;2023-11-19T08:57:18;100147.88;;;-7.13;71.05
62655;BME280;48717;55.556;37.816;2023-11-19T08:59:46;100126.25;;;-7.17;69.93
62655;BME280;48717;55.556;37.816;2023-11-19T09:02:13;100148.69;;;-7.02;69.82
62655;BME280;48717;55.556;37.816;2023-11-19T09:04:40;100120.06;;;-6.85;69.91
62655;BME280;48717;55.556;37.816;2023-11-19T09:07:08;100151.75;;;-6.36;69.41
62655;BME280;48717;55.556;37.816;2023-11-19T09:09:36;100140.78;;;-6.10;68.41
62655;BME280;48717;55.556;37.816;2023-11-19T09:12:04;100129.91;;;-6.06;67.17
62655;BME280;48717;55.556;37.816;2023-11-19T09:14:31;100095.13;;;-6.14;67.03
62655;BME280;48717;55.556;37.816;2023-11-19T09:16:58;100129.16;;;-6.05;66.59
62655;BME280;48717;55.556;37.816;2023-11-19T09:19:26;100133.06;;;-6.22;67.27
62655;BME280;48717;55.556;37.816;2023-11-19T09:21:53;100122.28;;;-6.42;67.38
62655;BME280;48717;55.556;37.816;2023-11-19T09:24:20;100117.59;;;-6.47;68.15
62655;BME280;48717;55.556;37.816;2023-11-19T09:26:47;100133.13;;;-6.58;67.35
62655;BME280;48717;55.556;37.816;2023-11-19T09:29:15;100138.13;;;-6.59;68.24
62655;BME280;48717;55.556;37.816;2023-11-19T09:31:43;100127.75;;;-6.73;69.09
62655;BME280;48717;55.556;37.816;2023-11-19T09:34:10;100103.09;;;-6.83;69.47
62655;BME280;48717;55.556;37.816;2023-11-19T09:36:37;100120.75;;;-6.63;69.23
62655;BME280;48717;55.556;37.816;2023-11-19T09:39:04;100123.41;;;-6.62;68.51
62655;BME280;48717;55.556;37.816;2023-11-19T09:41:35;100103.78;;;-6.49;68.80
62655;BME280;48717;55.556;37.816;2023-11-19T09:44:02;100068.53;;;-6.40;68.83
62655;BME280;48717;55.556;37.816;2023-11-19T09:46:29;100092.09;;;-5.83;67.49
62655;BME280;48717;55.556;37.816;2023-11-19T09:48:57;100096.78;;;-5.52;65.12
62655;BME280;48717;55.556;37.816;2023-11-19T09:51:26;100098.84;;;-5.20;63.16
62655;BME280;48717;55.556;37.816;2023-11-19T09:53:53;100076.31;;;-4.98;61.82
62655;BME280;48717;55.556;37.816;2023-11-19T09:56:21;100056.34;;;-4.88;61.25
62655;BME280;48717;55.556;37.816;2023-11-19T09:58:49;100079.09;;;-4.54;60.00
62655;BME280;48717;55.556;37.816;2023-11-19T10:01:16;100088.97;;;-4.47;59.32
62655;BME280;48717;55.556;37.816;2023-11-19T10:03:55;100071.47;;;-4.39;58.81
62655;BME280;48717;55.556;37.816;2023-11-19T10:06:24;100049.66;;;-4.44;57.47
62655;BME280;48717;55.556;37.816;2023-11-19T10:08:53;100069.03;;;-4.22;58.36
62655;BME280;48717;55.556;37.816;2023-11-19T10:11:20;100067.63;;;-4.03;58.53
62655;BME280;48717;55.556;37.816;2023-11-19T10:13:47;100063.97;;;-3.78;56.55
62655;BME280;48717;55.556;37.816;2023-11-19T10:16:15;100064.41;;;-3.71;55.53
62655;BME280;48717;55.556;37.816;2023-11-19T10:18:45;100053.94;;;-3.74;54.97
62655;BME280;48717;55.556;37.816;2023-11-19T10:21:19;100055.22;;;-3.96;56.67
62655;BME280;48717;55.556;37.816;2023-11-19T10:23:53;100029.81;;;-4.18;56.85
62655;BME280;48717;55.556;37.816;2023-11-19T10:26:20;100060.69;;;-4.04;57.07
62655;BME280;48717;55.556;37.816;2023-11-19T10:28:48;100039.44;;;-4.29;56.67
62655;BME280;48717;55.556;37.816;2023-11-19T10:31:20;100048.34;;;-4.24;57.28
62655;BME280;48717;55.556;37.816;2023-11-19T10:33:52;100040.88;;;-4.48;58.13
62655;BME280;48717;55.556;37.816;2023-11-19T10:36:20;100060.69;;;-4.74;58.77
62655;BME280;48717;55.556;37.816;2023-11-19T10:38:55;100056.81;;;-4.94;59.13
62655;BME280;48717;55.556;37.816;2023-11-19T10:41:31;100062.06;;;-5.06;60.69
62655;BME280;48717;55.556;37.816;2023-11-19T10:44:33;100029.41;;;-5.34;60.54
62655;BME280;48717;55.556;37.816;2023-11-19T10:47:05;100045.22;;;-5.28;61.16
62655;BME280;48717;55.556;37.816;2023-11-19T10:49:32;100040.41;;;-5.23;60.82
62655;BME280;48717;55.556;37.816;2023-11-19T10:52:02;100045.63;;;-5.21;61.27
62655;BME280;48717;55.556;37.816;2023-11-19T10:54:32;100038.91;;;-5.33;61.18
62655;BME280;48717;55.556;37.816;2023-11-19T10:57:02;100011.06;;;-5.52;61.46
62655;BME280;48717;55.556;37.816;2023-11-19T10:59:30;100030.84;;;-5.51;62.18
62655;BME280;48717;55.556;37.816;2023-11-19T11:02:03;100059.25;;;-5.36;63.34
62655;BME280;48717;55.556;37.816;2023-11-19T11:04:39;100056.69;;;-5.36;63.96
62655;BME280;48717;55.556;37.816;2023-11-19T11:07:07;100052.22;;;-5.39;63.02
62655;BME280;48717;55.556;37.816;2023-11-19T11:09:34;100020.41;;;-5.66;63.55
62655;BME280;48717;55.556;37.816;2023-11-19T11:12:03;100035.25;;;-5.62;62.87
62655;BME280;48717;55.556;37.816;2023-11-19T11:14:32;100032.50;;;-5.65;63.22
62655;BME280;48717;55.556;37.816;2023-11-19T11:17:03;100057.50;;;-5.63;61.60
62655;BME280;48717;55.556;37.816;2023-11-19T11:19:30;100047.47;;;-5.71;62.03
62655;BME280;48717;55.556;37.816;2023-11-19T11:21:58;100056.19;;;-5.69;62.14
62655;BME280;48717;55.556;37.816;2023-11-19T11:27:43;100054.00;;;-5.77;64.16
62655;BME280;48717;55.556;37.816;2023-11-19T11:30:37;100050.63;;;-5.76;64.35
62655;BME280;48717;55.556;37.816;2023-11-19T11:35:55;100043.31;;;-5.83;65.10
62655;BME280;48717;55.556;37.816;2023-11-19T11:38:26;100048.44;;;-5.83;65.59
62655;BME280;48717;55.556;37.816;2023-11-19T11:41:22;100047.53;;;-5.83;65.78
62655;BME280;48717;55.556;37.816;2023-11-19T11:43:54;100037.94;;;-5.86;65.12
62655;BME280;48717;55.556;37.816;2023-11-19T11:49:06;100030.81;;;-5.90;65.75
62655;BME280;48717;55.556;37.816;2023-11-19T11:59:47;100027.41;;;-6.28;65.33
62655;BME280;48717;55.556;37.816;2023-11-19T12:02:19;100045.69;;;-6.23;65.50
62655;BME280;48717;55.556;37.816;2023-11-19T12:04:51;100004.47;;;-6.50;65.44
62655;BME280;48717;55.556;37.816;2023-11-19T12:07:24;100029.91;;;-6.42;64.96
62655;BME280;48717;55.556;37.816;2023-11-19T12:09:56;100052.09;;;-6.42;64.26
62655;BME280;48717;55.556;37.816;2023-11-19T12:12:34;100027.41;;;-6.65;63.28
62655;BME280;48717;55.556;37.816;2023-11-19T12:15:09;100005.53;;;-6.72;63.71
62655;BME280;48717;55.556;37.816;2023-11-19T12:17:46;100043.34;;;-6.58;63.74
62655;BME280;48717;55.556;37.816;2023-11-19T12:20:18;100032.16;;;-6.58;63.86
62655;BME280;48717;55.556;37.816;2023-11-19T12:22:49;99999.84;;;-6.80;64.04
62655;BME280;48717;55.556;37.816;2023-11-19T12:25:18;100025.50;;;-6.56;63.65
62655;BME280;48717;55.556;37.816;2023-11-19T12:27:50;100009.91;;;-6.71;64.97
62655;BME280;48717;55.556;37.816;2023-11-19T12:30:26;100021.03;;;-6.59;64.67
62655;BME280;48717;55.556;37.816;2023-11-19T12:32:54;100026.16;;;-6.59;65.43
62655;BME280;48717;55.556;37.816;2023-11-19T12:35:23;100009.75;;;-6.61;65.65
62655;BME280;48717;55.556;37.816;2023-11-19T12:37:51;99982.44;;;-6.72;66.27
62655;BME280;48717;55.556;37.816;2023-11-19T12:40:25;99984.66;;;-6.65;66.12
62655;BME280;48717;55.556;37.816;2023-11-19T12:42:53;100007.16;;;-6.49;66.75
62655;BME280;48717;55.556;37.816;2023-11-19T12:45:21;99997.56;;;-6.51;66.64
62655;BME280;48717;55.556;37.816;2023-11-19T12:48:07;99997.34;;;-6.55;67.16
62655;BME280;48717;55.556;37.816;2023-11-19T12:50:56;100002.28;;;-6.58;66.86
62655;BME280;48717;55.556;37.816;2023-11-19T12:53:29;99993.81;;;-6.57;66.43
62655;BME280;48717;55.556;37.816;2023-11-19T12:56:07;99931.63;;;-6.90;67.34
62655;BME280;48717;55.556;37.816;2023-11-19T12:58:35;99981.25;;;-6.65;67.47
62655;BME280;48717;55.556;37.816;2023-11-19T13:01:05;99980.91;;;-6.70;67.36
62655;BME280;48717;55.556;37.816;2023-11-19T13:03:35;99974.00;;;-6.71;66.91
62655;BME280;48717;55.556;37.816;2023-11-19T13:06:11;99980.00;;;-6.71;67.10